Time;durP1;ratioP1;P1;durP2;ratioP2;P2;SDS_P1;SDS_P2;PMS_P1;PMS_P2;Temp;Humidity;BMP_temperature;BMP_pressure;BME280_temperature;BME280_humidity;BME280_pressure;Samples;Min_cycle;Max_cycle;Signal;HPM_P1;HPM_P2
2023/06/21 00:00:35;;;;;;;10.45;9.55;;;19.00;99.90;;;;;;4963693;28;20081;-72
2023/06/21 00:03:04;;;;;;;9.60;8.55;;;18.60;99.90;;;;;;4960674;28;20319;-72
2023/06/21 00:05:30;;;;;;;9.55;8.55;;;18.80;99.90;;;;;;4970544;28;20051;-71
2023/06/21 00:07:56;;;;;;;10.95;9.85;;;18.60;99.90;;;;;;4962237;28;20034;-70
2023/06/21 00:10:25;;;;;;;11.95;10.57;;;19.10;99.90;;;;;;4961661;28;20565;-72
2023/06/21 00:12:52;;;;;;;10.38;9.38;;;18.50;99.90;;;;;;4966583;28;20061;-73
2023/06/21 00:15:18;;;;;;;13.15;11.82;;;18.50;99.90;;;;;;4961260;28;20607;-70
2023/06/21 00:17:44;;;;;;;14.48;13.07;;;18.70;99.90;;;;;;4960792;28;20047;-71
2023/06/21 00:20:10;;;;;;;17.45;15.30;;;18.50;99.90;;;;;;4960293;28;20039;-72
2023/06/21 00:22:39;;;;;;;17.58;15.95;;;18.50;99.90;;;;;;4958879;28;20035;-71
2023/06/21 00:25:07;;;;;;;17.52;15.77;;;18.80;99.90;;;;;;4959266;28;20092;-72
2023/06/21 00:27:32;;;;;;;18.45;16.63;;;18.50;99.90;;;;;;4957759;28;20047;-71
2023/06/21 00:29:58;;;;;;;22.52;20.23;;;19.00;99.90;;;;;;4963792;28;20513;-72
2023/06/21 00:32:24;;;;;;;24.23;21.63;;;19.20;99.90;;;;;;4959371;28;20665;-71
2023/06/21 00:34:49;;;;;;;24.75;22.35;;;18.50;99.90;;;;;;4960354;28;20062;-72
2023/06/21 00:37:16;;;;;;;28.90;25.55;;;19.00;99.90;;;;;;4958595;28;20777;-71
2023/06/21 00:39:41;;;;;;;26.83;24.13;;;19.10;99.90;;;;;;4949973;28;20054;-71
2023/06/21 00:42:08;;;;;;;32.83;29.42;;;18.70;99.90;;;;;;4959358;28;20035;-72
2023/06/21 00:44:34;;;;;;;30.77;27.40;;;18.50;99.90;;;;;;4964958;28;20552;-69
2023/06/21 00:47:00;;;;;;;32.45;29.15;;;18.50;99.90;;;;;;4958211;28;20057;-71
2023/06/21 00:49:27;;;;;;;35.60;31.85;;;18.60;99.90;;;;;;4957373;28;20065;-71
2023/06/21 00:51:57;;;;;;;36.45;32.63;;;18.30;99.90;;;;;;4958764;28;20054;-71
2023/06/21 00:54:35;;;;;;;37.60;33.55;;;18.40;99.90;;;;;;4961117;28;20118;-72
2023/06/21 00:57:04;;;;;;;40.03;35.67;;;18.30;99.90;;;;;;4958173;28;20043;-71
2023/06/21 00:59:31;;;;;;;37.22;33.13;;;18.90;99.90;;;;;;4940894;28;20038;-71
2023/06/21 01:01:57;;;;;;;37.95;33.80;;;19.10;99.90;;;;;;4956919;28;20742;-71
2023/06/21 01:04:25;;;;;;;40.50;35.92;;;18.60;99.90;;;;;;4955160;28;20062;-71
2023/06/21 01:07:32;;;;;;;45.72;40.70;;;18.30;99.90;;;;;;4954720;28;20816;-69
2023/06/21 01:10:14;;;;;;;48.95;41.10;;;18.90;99.90;;;;;;4953719;28;20055;-71
2023/06/21 01:12:51;;;;;;;59.72;47.03;;;19.00;99.90;;;;;;4960152;28;20478;-70
2023/06/21 01:15:23;;;;;;;48.42;42.45;;;18.30;99.90;;;;;;4959228;28;20967;-71
2023/06/21 01:17:51;;;;;;;51.97;43.45;;;18.40;99.90;;;;;;4959914;28;20807;-71
2023/06/21 01:20:24;;;;;;;49.42;43.30;;;18.30;99.90;;;;;;4958716;28;20070;-70
2023/06/21 01:23:12;;;;;;;54.05;45.33;;;18.30;99.90;;;;;;4959022;28;20046;-73
2023/06/21 01:25:50;;;;;;;59.60;47.78;;;18.90;99.90;;;;;;4957288;28;20493;-71
2023/06/21 01:28:45;;;;;;;69.07;52.35;;;18.20;99.90;;;;;;4957685;28;20810;-71
2023/06/21 01:31:15;;;;;;;57.70;49.20;;;18.30;99.90;;;;;;4938800;28;20577;-70
2023/06/21 01:33:41;;;;;;;70.82;54.50;;;19.00;99.90;;;;;;4954427;28;20046;-71
2023/06/21 01:36:10;;;;;;;60.33;49.03;;;19.00;99.90;;;;;;4958311;28;20073;-70
2023/06/21 01:38:36;;;;;;;77.30;56.47;;;18.90;99.90;;;;;;4957848;28;20038;-71
2023/06/21 01:41:02;;;;;;;64.25;51.45;;;18.60;99.90;;;;;;4961242;28;20126;-71
2023/06/21 01:43:29;;;;;;;68.50;51.33;;;18.90;99.90;;;;;;4959952;28;20038;-71
2023/06/21 01:45:57;;;;;;;62.92;50.83;;;18.90;99.90;;;;;;4957439;28;20112;-74
2023/06/21 01:48:23;;;;;;;62.85;52.22;;;18.30;99.90;;;;;;4957711;28;20590;-72
2023/06/21 01:50:50;;;;;;;67.93;53.30;;;18.50;99.90;;;;;;4953956;28;20050;-71
2023/06/21 01:53:18;;;;;;;78.57;57.53;;;18.40;99.90;;;;;;4956948;28;20046;-71
2023/06/21 01:55:49;;;;;;;63.70;53.03;;;18.90;99.90;;;;;;4952710;28;20042;-70
2023/06/21 01:58:16;;;;;;;67.45;53.35;;;19.10;99.90;;;;;;4959521;28;20041;-71
2023/06/21 02:00:43;;;;;;;89.63;62.95;;;19.20;99.90;;;;;;4925260;28;20726;-72
2023/06/21 02:03:13;;;;;;;69.65;54.72;;;19.20;99.90;;;;;;4959165;28;20100;-71
2023/06/21 02:05:42;;;;;;;69.18;54.00;;;19.10;99.90;;;;;;4957115;28;20778;-71
2023/06/21 02:08:15;;;;;;;69.35;52.72;;;18.70;99.90;;;;;;4957560;28;20076;-70
2023/06/21 02:10:43;;;;;;;66.18;52.38;;;18.50;99.90;;;;;;4957780;28;20527;-71
2023/06/21 02:13:08;;;;;;;66.80;51.60;;;18.90;99.90;;;;;;4959384;28;20142;-72
2023/06/21 02:15:34;;;;;;;69.20;53.53;;;19.00;99.90;;;;;;4959363;28;20043;-72
2023/06/21 02:18:01;;;;;;;64.57;50.83;;;19.20;99.90;;;;;;4959465;28;20658;-71
2023/06/21 02:20:27;;;;;;;62.42;49.10;;;18.50;99.90;;;;;;4966300;28;20051;-71
2023/06/21 02:22:53;;;;;;;58.97;48.75;;;18.60;99.90;;;;;;4954802;28;20537;-71
2023/06/21 02:25:19;;;;;;;74.68;53.75;;;18.80;99.90;;;;;;4957212;28;20046;-72
2023/06/21 02:27:44;;;;;;;61.00;47.97;;;18.90;99.90;;;;;;4950863;28;20051;-72
2023/06/21 02:30:10;;;;;;;55.28;44.50;;;19.00;99.90;;;;;;4958230;28;20049;-70
2023/06/21 02:32:36;;;;;;;68.60;52.00;;;19.10;99.90;;;;;;4966547;28;20051;-71
2023/06/21 02:35:02;;;;;;;60.50;48.58;;;19.20;99.90;;;;;;4961341;28;20042;-71
2023/06/21 02:37:28;;;;;;;58.72;46.67;;;18.90;99.90;;;;;;4942428;28;20125;-70
2023/06/21 02:39:57;;;;;;;64.40;49.47;;;19.30;99.90;;;;;;4958302;28;20056;-71
2023/06/21 02:42:23;;;;;;;59.05;48.33;;;18.50;99.90;;;;;;4961876;28;20104;-71
2023/06/21 02:44:49;;;;;;;58.95;47.85;;;18.60;99.90;;;;;;4960665;28;20571;-70
2023/06/21 02:47:14;;;;;;;69.30;51.80;;;18.80;99.90;;;;;;4961331;28;20055;-70
2023/06/21 02:49:40;;;;;;;56.88;46.38;;;18.90;99.90;;;;;;4961651;28;20175;-69
2023/06/21 02:52:06;;;;;;;65.78;50.60;;;18.70;99.90;;;;;;4955854;28;20090;-71
2023/06/21 02:54:32;;;;;;;58.10;46.45;;;18.60;99.90;;;;;;4959154;28;20049;-70
2023/06/21 02:56:58;;;;;;;66.65;50.03;;;18.90;99.90;;;;;;4956221;28;20038;-70
2023/06/21 02:59:28;;;;;;;57.65;46.13;;;18.70;99.90;;;;;;4960976;28;20035;-71
2023/06/21 03:01:54;;;;;;;61.85;48.92;;;18.60;99.90;;;;;;4966452;28;20108;-71
2023/06/21 03:04:20;;;;;;;60.05;47.08;;;18.90;99.90;;;;;;4961936;28;20516;-70
2023/06/21 03:06:46;;;;;;;56.40;45.45;;;18.60;99.90;;;;;;4958746;28;20046;-72
2023/06/21 03:09:11;;;;;;;58.28;46.33;;;19.20;99.90;;;;;;4961813;28;20074;-72
2023/06/21 03:11:37;;;;;;;64.85;51.30;;;18.70;99.90;;;;;;4961827;28;20050;-70
2023/06/21 03:14:04;;;;;;;69.30;53.40;;;18.70;99.90;;;;;;4961846;28;20053;-70
2023/06/21 03:16:30;;;;;;;66.85;51.78;;;18.50;99.90;;;;;;4963695;28;20512;-71
2023/06/21 03:18:55;;;;;;;60.63;47.83;;;18.70;99.90;;;;;;4965337;28;20165;-71
2023/06/21 03:21:22;;;;;;;59.97;48.95;;;18.60;99.90;;;;;;4959224;28;20038;-71
2023/06/21 03:23:49;;;;;;;93.75;61.15;;;19.20;99.90;;;;;;4960450;28;20046;-72
2023/06/21 03:26:14;;;;;;;71.15;54.97;;;18.50;99.90;;;;;;4957375;28;20074;-70
2023/06/21 03:28:42;;;;;;;63.88;52.47;;;19.00;99.90;;;;;;4959419;28;21090;-71
2023/06/21 03:31:08;;;;;;;65.78;53.38;;;19.10;99.90;;;;;;4958705;28;20128;-71
2023/06/21 03:33:33;;;;;;;74.43;57.10;;;18.80;99.90;;;;;;4958426;28;20076;-71
2023/06/21 03:35:59;;;;;;;75.38;59.63;;;18.40;99.90;;;;;;4970580;28;20043;-72
2023/06/21 03:38:25;;;;;;;80.72;62.03;;;19.10;99.90;;;;;;4956155;28;20510;-70
2023/06/21 03:40:50;;;;;;;64.10;55.42;;;18.90;99.90;;;;;;4959207;28;20051;-70
2023/06/21 03:43:16;;;;;;;71.07;56.20;;;18.30;99.90;;;;;;4957030;28;20043;-70
2023/06/21 03:45:42;;;;;;;58.03;51.60;;;18.90;99.90;;;;;;4957010;28;20058;-72
2023/06/21 03:48:08;;;;;;;72.28;57.30;;;18.60;99.90;;;;;;4956707;28;20580;-72
2023/06/21 03:50:33;;;;;;;63.40;53.75;;;19.00;99.90;;;;;;4958303;28;20073;-71
2023/06/21 03:53:00;;;;;;;65.10;54.95;;;18.70;99.90;;;;;;4961639;28;20537;-71
2023/06/21 03:55:26;;;;;;;61.03;53.75;;;18.70;99.90;;;;;;4963409;28;20103;-72
2023/06/21 03:57:51;;;;;;;68.75;57.10;;;18.90;99.90;;;;;;4947910;28;20766;-70
2023/06/21 04:00:17;;;;;;;63.90;54.90;;;19.20;99.90;;;;;;4956451;28;20146;-71
2023/06/21 04:02:44;;;;;;;69.18;57.72;;;18.50;99.90;;;;;;4961859;28;20042;-72
2023/06/21 04:05:10;;;;;;;65.80;57.03;;;19.00;99.90;;;;;;4956852;28;20081;-72
2023/06/21 04:07:40;;;;;;;68.97;58.45;;;19.10;99.90;;;;;;4962006;28;21176;-69
2023/06/21 04:10:08;;;;;;;75.07;59.72;;;18.40;99.90;;;;;;4958304;28;20046;-71
2023/06/21 04:12:34;;;;;;;74.25;60.20;;;19.10;99.90;;;;;;4962098;28;20129;-71
2023/06/21 04:15:03;;;;;;;74.90;59.95;;;18.90;99.90;;;;;;4970855;28;20506;-72
2023/06/21 04:17:29;;;;;;;67.43;56.38;;;19.10;99.90;;;;;;4959946;28;20042;-72
2023/06/21 04:19:55;;;;;;;69.40;56.45;;;18.60;99.90;;;;;;4959079;28;20717;-71
2023/06/21 04:22:23;;;;;;;66.13;56.03;;;18.80;99.90;;;;;;4956606;28;20039;-71
2023/06/21 04:24:49;;;;;;;62.33;53.55;;;19.10;99.90;;;;;;4957980;28;20721;-71
2023/06/21 04:27:15;;;;;;;68.53;56.60;;;19.10;99.90;;;;;;4956394;28;20047;-72
2023/06/21 04:29:41;;;;;;;69.68;55.97;;;19.00;99.90;;;;;;4958475;28;20046;-72
2023/06/21 04:32:08;;;;;;;68.95;56.65;;;18.50;99.90;;;;;;4961035;28;20049;-71
2023/06/21 04:34:34;;;;;;;66.30;54.40;;;19.20;99.90;;;;;;4956792;28;20069;-71
2023/06/21 04:37:05;;;;;;;63.60;53.00;;;19.20;99.90;;;;;;4951014;28;20055;-71
2023/06/21 04:39:31;;;;;;;66.28;53.55;;;19.30;99.90;;;;;;4955014;28;20050;-71
2023/06/21 04:42:00;;;;;;;62.33;52.95;;;18.50;99.90;;;;;;4959707;28;21258;-70
2023/06/21 04:44:27;;;;;;;64.10;52.88;;;19.20;99.90;;;;;;4958722;28;20045;-70
2023/06/21 04:46:54;;;;;;;58.70;49.97;;;19.40;99.90;;;;;;4955510;28;20651;-72
2023/06/21 04:49:20;;;;;;;59.63;50.28;;;19.30;99.90;;;;;;4956179;28;20067;-70
2023/06/21 04:51:46;;;;;;;59.38;47.65;;;19.30;99.90;;;;;;4958229;28;20034;-72
2023/06/21 04:54:12;;;;;;;56.28;48.20;;;19.30;99.90;;;;;;4955000;28;20741;-71
2023/06/21 04:56:37;;;;;;;60.63;50.33;;;19.20;99.90;;;;;;4959514;28;20047;-72
2023/06/21 04:59:03;;;;;;;58.72;49.92;;;18.80;99.90;;;;;;4959857;28;20035;-71
2023/06/21 05:01:32;;;;;;;59.60;47.13;;;19.10;99.90;;;;;;4957423;28;20046;-71
2023/06/21 05:03:58;;;;;;;57.60;48.33;;;18.90;99.90;;;;;;4959716;28;20049;-71
2023/06/21 05:06:25;;;;;;;55.85;46.47;;;18.90;99.90;;;;;;4965825;28;20043;-72
2023/06/21 05:08:52;;;;;;;54.47;45.67;;;19.50;99.90;;;;;;4957802;28;20046;-70
2023/06/21 05:11:21;;;;;;;61.50;49.88;;;19.50;99.90;;;;;;4950948;28;20742;-71
2023/06/21 05:13:46;;;;;;;53.15;46.55;;;19.30;99.90;;;;;;4963378;28;20057;-70
2023/06/21 05:16:12;;;;;;;59.22;46.80;;;19.20;99.90;;;;;;4939111;28;20047;-71
2023/06/21 05:18:38;;;;;;;53.95;45.45;;;19.40;99.90;;;;;;4961045;28;20479;-71
2023/06/21 05:21:05;;;;;;;55.28;45.95;;;19.10;99.90;;;;;;4959744;28;20626;-71
2023/06/21 05:23:30;;;;;;;52.78;43.95;;;19.60;99.90;;;;;;4954457;28;20043;-72
2023/06/21 05:25:56;;;;;;;48.35;40.47;;;19.60;99.90;;;;;;4965157;28;20050;-70
2023/06/21 05:28:22;;;;;;;49.15;41.17;;;19.30;99.90;;;;;;4964461;28;20054;-70
2023/06/21 05:30:48;;;;;;;43.75;37.22;;;19.20;99.90;;;;;;4952355;28;20057;-70
2023/06/21 05:33:14;;;;;;;45.22;38.47;;;19.40;99.90;;;;;;4957247;28;20053;-70
2023/06/21 05:35:40;;;;;;;42.97;35.65;;;19.30;99.90;;;;;;4953300;28;20055;-69
2023/06/21 05:38:06;;;;;;;40.90;34.10;;;19.70;99.90;;;;;;4959486;28;20310;-69
2023/06/21 05:40:32;;;;;;;38.45;32.10;;;19.70;99.90;;;;;;4965030;28;20039;-69
2023/06/21 05:43:01;;;;;;;35.33;31.17;;;19.50;99.90;;;;;;4946954;28;20787;-70
2023/06/21 05:45:28;;;;;;;31.55;28.02;;;19.50;99.90;;;;;;4958512;28;20081;-71
2023/06/21 05:47:54;;;;;;;33.38;29.30;;;19.10;99.90;;;;;;4958860;28;20062;-70
2023/06/21 05:50:20;;;;;;;32.58;28.25;;;19.50;99.90;;;;;;4952959;28;20638;-73
2023/06/21 05:52:46;;;;;;;32.70;28.25;;;19.70;99.90;;;;;;4960839;28;20055;-71
2023/06/21 05:55:12;;;;;;;34.78;30.13;;;19.80;99.90;;;;;;4958341;28;20751;-71
2023/06/21 05:57:37;;;;;;;32.53;27.20;;;19.80;99.90;;;;;;4958821;28;20142;-70
2023/06/21 06:00:08;;;;;;;32.35;27.23;;;19.90;99.90;;;;;;4959651;28;20081;-70
2023/06/21 06:02:33;;;;;;;35.95;28.63;;;19.90;99.90;;;;;;4935840;28;20054;-69
2023/06/21 06:04:59;;;;;;;31.48;27.48;;;20.00;99.90;;;;;;4950382;28;20068;-69
2023/06/21 06:07:25;;;;;;;29.60;26.40;;;20.30;99.90;;;;;;4954401;28;20141;-71
2023/06/21 06:09:51;;;;;;;32.10;27.05;;;20.10;99.90;;;;;;4958432;28;20258;-71
2023/06/21 06:12:18;;;;;;;29.90;24.00;;;20.20;99.90;;;;;;4958696;28;20070;-71
2023/06/21 06:14:44;;;;;;;28.13;24.48;;;20.10;99.90;;;;;;4957109;28;20034;-72
2023/06/21 06:17:10;;;;;;;26.95;24.08;;;20.30;99.90;;;;;;4958577;28;20047;-69
2023/06/21 06:19:36;;;;;;;26.17;22.50;;;20.20;99.90;;;;;;4957270;28;20046;-71
2023/06/21 06:22:01;;;;;;;26.60;22.55;;;20.40;99.90;;;;;;4952510;28;20050;-71
2023/06/21 06:24:27;;;;;;;27.67;21.92;;;20.20;99.90;;;;;;4958180;28;20118;-70
2023/06/21 06:26:54;;;;;;;28.13;22.08;;;20.20;99.90;;;;;;4953912;28;20529;-69
2023/06/21 06:29:19;;;;;;;24.27;21.23;;;19.80;99.90;;;;;;4959469;28;20077;-70
2023/06/21 06:31:46;;;;;;;26.00;21.17;;;19.90;99.90;;;;;;4966945;28;20648;-69
2023/06/21 06:34:11;;;;;;;24.50;20.92;;;20.10;99.90;;;;;;4958073;28;20046;-71
2023/06/21 06:36:37;;;;;;;24.70;20.15;;;20.10;99.90;;;;;;4948550;28;20657;-71
2023/06/21 06:39:03;;;;;;;23.13;19.67;;;19.90;99.90;;;;;;4959729;28;20043;-71
2023/06/21 06:41:29;;;;;;;20.08;17.20;;;20.00;99.90;;;;;;4939119;28;20050;-71
2023/06/21 06:43:55;;;;;;;18.88;16.88;;;20.30;1.00;;;;;;4963234;28;20272;-70
2023/06/21 06:46:20;;;;;;;23.60;17.33;;;20.40;10.20;;;;;;4960191;28;20262;-70
2023/06/21 06:48:46;;;;;;;20.52;18.33;;;20.20;1.00;;;;;;4960838;28;20617;-70
2023/06/21 06:51:12;;;;;;;18.38;16.40;;;20.40;1.00;;;;;;4956936;28;20093;-69
2023/06/21 06:53:38;;;;;;;17.42;15.63;;;20.40;1.00;;;;;;4962449;28;20050;-71
2023/06/21 06:56:03;;;;;;;18.42;16.35;;;20.50;1.00;;;;;;4962130;28;20046;-68
2023/06/21 06:58:30;;;;;;;18.52;16.52;;;20.50;99.90;;;;;;4963461;28;20039;-70
2023/06/21 07:00:56;;;;;;;18.60;16.67;;;20.70;99.90;;;;;;4970650;28;20042;-70
2023/06/21 07:03:22;;;;;;;18.13;16.23;;;21.00;99.90;;;;;;4967247;28;20092;-72
2023/06/21 07:05:49;;;;;;;19.17;17.00;;;21.20;99.90;;;;;;4959131;28;20157;-71
2023/06/21 07:08:15;;;;;;;17.55;15.73;;;21.20;99.90;;;;;;4965754;28;20043;-70
2023/06/21 07:10:41;;;;;;;17.45;15.20;;;21.40;99.90;;;;;;4964213;28;20458;-69
2023/06/21 07:13:07;;;;;;;17.75;15.93;;;21.50;99.90;;;;;;4961770;28;20054;-72
2023/06/21 07:15:33;;;;;;;18.40;16.10;;;21.50;99.90;;;;;;4952327;28;20953;-69
2023/06/21 07:17:59;;;;;;;18.02;16.15;;;21.50;99.90;;;;;;4963205;28;20578;-71
2023/06/21 07:20:25;;;;;;;17.73;15.18;;;21.50;77.30;;;;;;4959274;28;20806;-72
2023/06/21 07:22:51;;;;;;;17.15;15.45;;;21.40;79.90;;;;;;4958318;28;20043;-71
2023/06/21 07:25:17;;;;;;;17.25;15.45;;;21.40;12.20;;;;;;4969854;28;20269;-71
2023/06/21 07:27:43;;;;;;;18.83;14.50;;;21.50;99.90;;;;;;4957286;28;20121;-72
2023/06/21 07:30:09;;;;;;;16.08;13.23;;;21.50;21.40;;;;;;4959926;28;20054;-71
2023/06/21 07:32:35;;;;;;;13.77;12.38;;;21.60;1.00;;;;;;4965664;28;20563;-72
2023/06/21 07:35:02;;;;;;;13.55;12.18;;;21.90;1.00;;;;;;4960853;28;20057;-71
2023/06/21 07:37:28;;;;;;;12.88;11.57;;;21.80;99.90;;;;;;4966315;28;20118;-70
2023/06/21 07:39:57;;;;;;;13.23;11.65;;;21.90;99.90;;;;;;4963242;28;20047;-72
2023/06/21 07:42:23;;;;;;;14.77;12.50;;;22.20;99.90;;;;;;4955933;28;20376;-71
2023/06/21 07:44:54;;;;;;;14.35;12.90;;;22.20;99.90;;;;;;4971623;28;20046;-71
2023/06/21 07:47:20;;;;;;;13.07;11.70;;;22.10;99.90;;;;;;4969929;28;20093;-71
2023/06/21 07:49:46;;;;;;;13.57;11.90;;;22.20;99.90;;;;;;4967893;28;20050;-72
2023/06/21 07:52:12;;;;;;;13.90;12.50;;;22.20;99.90;;;;;;4937711;28;20058;-72
2023/06/21 07:54:38;;;;;;;13.07;10.80;;;22.40;99.90;;;;;;4957691;28;20050;-70
2023/06/21 07:57:04;;;;;;;14.15;12.68;;;22.30;99.90;;;;;;4961270;28;20558;-69
2023/06/21 07:59:31;;;;;;;13.13;11.75;;;22.20;99.90;;;;;;4959393;28;20333;-71
2023/06/21 08:01:57;;;;;;;14.98;12.23;;;22.10;99.90;;;;;;4963258;28;20039;-72
2023/06/21 08:04:23;;;;;;;13.80;12.00;;;22.00;99.90;;;;;;4956616;28;20463;-72
2023/06/21 08:06:49;;;;;;;14.18;12.15;;;22.20;99.90;;;;;;4943533;28;20596;-71
2023/06/21 08:09:15;;;;;;;13.10;11.80;;;22.50;99.90;;;;;;4954705;28;20101;-70
2023/06/21 08:11:41;;;;;;;12.95;11.65;;;22.70;99.90;;;;;;4963955;28;20080;-69
2023/06/21 08:14:07;;;;;;;14.30;11.50;;;22.60;99.90;;;;;;4940799;28;20054;-70
2023/06/21 08:16:32;;;;;;;13.18;10.65;;;22.70;99.90;;;;;;4966072;28;20027;-72
2023/06/21 08:18:58;;;;;;;13.00;10.15;;;22.90;99.90;;;;;;4951315;28;20050;-70
2023/06/21 08:21:24;;;;;;;13.45;10.07;;;22.90;99.90;;;;;;4952318;28;20038;-70
2023/06/21 08:23:49;;;;;;;11.68;9.63;;;23.20;99.90;;;;;;4961149;28;20046;-71
2023/06/21 08:26:15;;;;;;;10.10;9.20;;;23.60;99.90;;;;;;4966704;28;20149;-71
2023/06/21 08:28:41;;;;;;;9.50;8.55;;;23.80;99.90;;;;;;4967360;28;20084;-71
2023/06/21 08:31:07;;;;;;;9.68;8.65;;;24.00;99.90;;;;;;4967536;28;20137;-71
2023/06/21 08:33:33;;;;;;;9.73;8.30;;;24.10;99.90;;;;;;4967418;28;21033;-72
2023/06/21 08:35:58;;;;;;;9.65;8.25;;;24.20;99.90;;;;;;4966708;28;20637;-70
2023/06/21 08:38:24;;;;;;;7.65;6.70;;;24.30;99.90;;;;;;4958724;28;20069;-70
2023/06/21 08:40:57;;;;;;;8.55;7.45;;;24.30;99.90;;;;;;4939833;28;20058;-71
2023/06/21 08:43:23;;;;;;;7.60;6.90;;;24.30;99.90;;;;;;4957355;28;20042;-71
2023/06/21 08:45:49;;;;;;;6.90;6.28;;;24.20;66.20;;;;;;4959561;28;20047;-71
2023/06/21 08:48:18;;;;;;;8.10;6.65;;;24.00;1.00;;;;;;4954273;28;20637;-71
2023/06/21 08:50:44;;;;;;;7.53;6.53;;;24.20;54.90;;;;;;4966067;28;20070;-72
2023/06/21 08:53:17;;;;;;;6.60;5.45;;;24.30;1.00;;;;;;4956149;28;20162;-74
2023/06/21 08:55:44;;;;;;;5.90;5.40;;;24.40;1.00;;;;;;4958584;28;20047;-72
2023/06/21 08:58:16;;;;;;;6.53;5.63;;;24.50;1.00;;;;;;4959347;28;20487;-74
2023/06/21 09:00:47;;;;;;;6.80;6.00;;;24.70;99.90;;;;;;4964666;28;20054;-73
2023/06/21 09:03:19;;;;;;;6.80;6.15;;;24.50;99.90;;;;;;4965339;28;20050;-72
2023/06/21 09:06:03;;;;;;;9.80;6.32;;;24.30;99.90;;;;;;4958874;28;20114;-74
2023/06/21 09:08:30;;;;;;;6.32;5.72;;;24.20;1.00;;;;;;4958430;28;20043;-74
2023/06/21 09:10:57;;;;;;;6.93;5.88;;;24.20;1.00;;;;;;4957820;28;20694;-72
2023/06/21 09:13:24;;;;;;;5.82;5.32;;;24.40;1.00;;;;;;4966449;28;20073;-72
2023/06/21 09:15:51;;;;;;;6.35;5.70;;;24.50;99.90;;;;;;4961402;28;20061;-73
2023/06/21 09:18:18;;;;;;;5.93;5.25;;;24.40;99.90;;;;;;4971229;28;20046;-72
2023/06/21 09:20:49;;;;;;;6.22;5.63;;;24.50;1.00;;;;;;4963044;28;20047;-73
2023/06/21 09:23:15;;;;;;;6.10;5.50;;;24.80;99.90;;;;;;4961981;28;20605;-73
2023/06/21 09:25:44;;;;;;;6.38;5.78;;;25.00;99.90;;;;;;4958032;28;20126;-73
2023/06/21 09:28:10;;;;;;;6.07;5.40;;;25.20;99.90;;;;;;4962313;28;20054;-73
2023/06/21 09:30:36;;;;;;;7.22;5.63;;;25.10;99.90;;;;;;4960671;28;20054;-73
2023/06/21 09:33:05;;;;;;;5.90;5.03;;;25.30;99.90;;;;;;4956435;28;20050;-73
2023/06/21 09:35:31;;;;;;;7.43;5.28;;;25.40;99.90;;;;;;4952684;28;20129;-73
2023/06/21 09:37:57;;;;;;;7.45;6.05;;;25.70;99.90;;;;;;4954494;28;20054;-73
2023/06/21 09:40:23;;;;;;;6.63;5.40;;;25.60;99.90;;;;;;4953357;28;20050;-73
2023/06/21 09:42:50;;;;;;;5.80;5.22;;;25.90;99.90;;;;;;4967108;28;20061;-73
2023/06/21 09:45:19;;;;;;;7.13;5.07;;;25.80;99.90;;;;;;4962950;28;20527;-73
2023/06/21 09:47:45;;;;;;;6.22;4.75;;;25.50;99.90;;;;;;4958738;28;20062;-74
2023/06/21 09:50:12;;;;;;;5.25;4.32;;;25.30;99.90;;;;;;4967680;28;20212;-73
2023/06/21 09:52:43;;;;;;;4.80;4.30;;;25.30;99.90;;;;;;4964991;28;20042;-73
2023/06/21 09:55:12;;;;;;;5.88;4.50;;;25.70;99.90;;;;;;4960493;28;20064;-74
2023/06/21 09:57:38;;;;;;;4.90;4.45;;;25.90;99.90;;;;;;4973628;28;20058;-74
2023/06/21 10:00:06;;;;;;;5.32;3.75;;;26.10;99.90;;;;;;4963832;28;20864;-73
2023/06/21 10:02:39;;;;;;;4.35;3.92;;;26.20;99.90;;;;;;4970402;28;20892;-74
2023/06/21 10:05:05;;;;;;;5.60;3.88;;;26.10;99.90;;;;;;4963091;28;20069;-74
2023/06/21 10:07:31;;;;;;;4.85;3.50;;;26.40;99.90;;;;;;4955762;28;20736;-74
2023/06/21 10:10:05;;;;;;;5.10;3.60;;;26.20;99.90;;;;;;4971142;28;20074;-74
2023/06/21 10:12:33;;;;;;;5.00;3.85;;;26.20;99.90;;;;;;4972362;28;20059;-72
2023/06/21 10:14:59;;;;;;;5.25;4.00;;;26.10;99.90;;;;;;4961127;28;20483;-77
2023/06/21 10:17:26;;;;;;;3.58;2.83;;;26.20;99.90;;;;;;4967930;28;20307;-75
2023/06/21 10:19:52;;;;;;;5.03;3.00;;;26.40;99.90;;;;;;4964235;28;20039;-73
2023/06/21 10:22:20;;;;;;;6.55;2.92;;;27.00;99.90;;;;;;4961615;28;20607;-72
2023/06/21 10:24:51;;;;;;;4.60;2.50;;;27.20;99.90;;;;;;4971978;28;20157;-75
2023/06/21 10:27:21;;;;;;;3.75;2.50;;;27.40;99.90;;;;;;4978882;28;20136;-73
2023/06/21 10:29:57;;;;;;;4.55;2.47;;;27.50;99.90;;;;;;4980230;28;20424;-73
2023/06/21 10:32:31;;;;;;;6.05;3.50;;;27.40;99.90;;;;;;4963097;28;20056;-72
2023/06/21 10:35:13;;;;;;;3.67;2.75;;;27.20;99.90;;;;;;4958323;28;20618;-73
2023/06/21 10:38:14;;;;;;;3.80;2.38;;;27.30;99.90;;;;;;4967044;28;20074;-74
2023/06/21 10:40:40;;;;;;;3.83;2.35;;;27.70;99.90;;;;;;4952651;28;20402;-73
2023/06/21 10:43:07;;;;;;;3.97;2.63;;;27.60;99.90;;;;;;4962221;28;20053;-73
2023/06/21 10:45:34;;;;;;;5.63;2.63;;;27.60;99.90;;;;;;4957576;28;20299;-74
2023/06/21 10:48:00;;;;;;;3.15;2.60;;;27.30;99.90;;;;;;4961596;28;20051;-73
2023/06/21 10:50:26;;;;;;;3.20;2.05;;;27.40;99.90;;;;;;4965268;28;21134;-74
2023/06/21 10:52:58;;;;;;;3.97;2.65;;;27.40;99.90;;;;;;4969713;28;20047;-75
2023/06/21 10:55:23;;;;;;;3.25;2.05;;;27.80;99.90;;;;;;4955550;28;20951;-73
2023/06/21 10:57:53;;;;;;;2.33;2.10;;;27.80;99.90;;;;;;4968699;28;20133;-74
2023/06/21 11:00:21;;;;;;;4.25;2.53;;;27.60;99.90;;;;;;4971703;28;20046;-73
2023/06/21 11:02:47;;;;;;;4.75;2.55;;;27.80;99.90;;;;;;4969340;28;20049;-74
2023/06/21 11:05:26;;;;;;;3.70;2.28;;;28.00;99.90;;;;;;4968425;28;20283;-73
2023/06/21 11:07:58;;;;;;;3.20;2.33;;;27.90;99.90;;;;;;4953076;28;20089;-75
2023/06/21 11:10:48;;;;;;;2.60;1.73;;;28.00;99.90;;;;;;4961625;28;20616;-73
2023/06/21 11:13:32;;;;;;;3.92;1.70;;;28.10;99.90;;;;;;4958774;28;20093;-73
2023/06/21 11:16:12;;;;;;;2.22;1.60;;;27.80;99.90;;;;;;4966093;28;20048;-74
2023/06/21 11:18:38;;;;;;;2.83;1.70;;;27.70;99.90;;;;;;4957367;28;20050;-74
2023/06/21 11:21:05;;;;;;;1.85;1.50;;;27.60;99.90;;;;;;4962890;28;20049;-73
2023/06/21 11:23:31;;;;;;;2.03;1.52;;;27.80;99.90;;;;;;4963390;28;20050;-74
2023/06/21 11:26:03;;;;;;;4.53;2.13;;;28.30;99.90;;;;;;4945525;28;20045;-74
2023/06/21 11:28:33;;;;;;;5.13;1.65;;;28.90;99.90;;;;;;4961566;28;20174;-74
2023/06/21 11:31:01;;;;;;;1.75;1.55;;;29.20;97.70;;;;;;4963458;28;20054;-74
2023/06/21 11:33:29;;;;;;;2.83;1.80;;;29.20;70.10;;;;;;4965770;28;20530;-73
2023/06/21 11:36:06;;;;;;;4.85;2.15;;;28.70;63.70;;;;;;4964188;28;20050;-73
2023/06/21 11:38:33;;;;;;;2.45;2.05;;;28.10;53.20;;;;;;4965410;28;20050;-73
2023/06/21 11:41:00;;;;;;;3.30;2.92;;;27.60;61.10;;;;;;4960006;28;20555;-74
2023/06/21 11:43:26;;;;;;;5.47;2.75;;;27.40;91.20;;;;;;4959599;28;20062;-75
2023/06/21 11:46:03;;;;;;;3.03;2.72;;;27.80;99.90;;;;;;4963109;28;20089;-76
2023/06/21 11:48:30;;;;;;;4.78;2.47;;;27.90;99.90;;;;;;4958140;28;20125;-73
2023/06/21 11:51:16;;;;;;;3.55;2.08;;;28.20;99.90;;;;;;4966205;28;20647;-74
2023/06/21 11:53:42;;;;;;;3.13;1.95;;;28.60;99.90;;;;;;4960053;28;20719;-73
2023/06/21 11:56:09;;;;;;;2.28;1.30;;;29.00;92.80;;;;;;4951752;28;20055;-74
2023/06/21 11:58:35;;;;;;;2.50;1.15;;;29.10;29.30;;;;;;4962234;28;20152;-74
2023/06/21 12:01:03;;;;;;;3.20;1.40;;;29.20;51.70;;;;;;4966856;28;20054;-74
2023/06/21 12:03:28;;;;;;;1.70;1.45;;;28.90;13.90;;;;;;4961091;28;20286;-73
2023/06/21 12:06:04;;;;;;;1.90;1.20;;;28.30;22.60;;;;;;4966368;28;20046;-73
2023/06/21 12:08:37;;;;;;;2.60;1.58;;;28.20;39.20;;;;;;4963212;28;20636;-73
2023/06/21 12:11:08;;;;;;;2.70;1.65;;;28.40;47.20;;;;;;4970643;28;20050;-73
2023/06/21 12:13:35;;;;;;;2.88;1.83;;;28.40;39.00;;;;;;4963115;28;20156;-74
2023/06/21 12:16:02;;;;;;;6.85;3.60;;;28.00;62.70;;;;;;4957751;28;20054;-73
2023/06/21 12:18:29;;;;;;;6.05;3.83;;;27.40;99.90;;;;;;4955226;28;20070;-76
2023/06/21 12:20:58;;;;;;;6.25;4.53;;;27.10;99.90;;;;;;4954587;28;20062;-73
2023/06/21 12:23:25;;;;;;;6.93;4.78;;;26.70;99.90;;;;;;4967965;28;20361;-74
2023/06/21 12:25:56;;;;;;;8.60;3.90;;;26.50;99.90;;;;;;4963709;28;20123;-74
2023/06/21 12:28:24;;;;;;;4.88;3.28;;;27.10;99.90;;;;;;4952834;28;20054;-73
2023/06/21 12:30:56;;;;;;;5.63;3.70;;;27.70;99.90;;;;;;4964150;28;20632;-72
2023/06/21 12:33:26;;;;;;;7.70;4.72;;;28.00;99.90;;;;;;4951329;28;20122;-74
2023/06/21 12:36:20;;;;;;;6.13;4.90;;;27.80;99.90;;;;;;4954054;28;20426;-74